Time;durP1;ratioP1;P1;durP2;ratioP2;P2;SDS_P1;SDS_P2;PMS_P1;PMS_P2;Temp;Humidity;BMP_temperature;BMP_pressure;BME280_temperature;BME280_humidity;BME280_pressure;Samples;Min_cycle;Max_cycle;Signal;HPM_P1;HPM_P2
2024/01/21 00:01:46;;;;;;;;;50.00;35.00;;;;;9.70;38.39;101959.47;5034008;28;45966;-74
2024/01/21 00:04:12;;;;;;;;;41.33;37.33;;;;;9.97;38.56;101988.28;5033869;28;45315;-73
2024/01/21 00:06:37;;;;;;;;;40.33;37.00;;;;;10.02;38.31;101962.28;5034073;28;45383;-75
2024/01/21 00:09:02;;;;;;;;;32.00;32.00;;;;;10.07;38.20;101946.09;5033385;28;54769;-74
2024/01/21 00:11:28;;;;;;;;;35.00;32.33;;;;;10.07;37.75;101935.38;5034145;28;46606;-73
2024/01/21 00:13:53;;;;;;;;;41.33;31.00;;;;;10.02;38.13;101903.34;5033418;28;45378;-73
2024/01/21 00:16:18;;;;;;;;;45.00;40.33;;;;;10.03;37.83;101894.41;5033411;28;45510;-75
2024/01/21 00:18:44;;;;;;;;;35.67;32.00;;;;;10.26;37.79;101917.94;5034986;28;45586;-73
2024/01/21 00:21:09;;;;;;;;;36.33;33.00;;;;;10.29;37.79;101917.00;5034713;28;46127;-75
2024/01/21 00:23:35;;;;;;;;;34.00;30.33;;;;;10.22;37.54;101916.25;5036325;28;45372;-74
2024/01/21 00:26:00;;;;;;;;;32.75;28.50;;;;;10.23;37.18;101920.69;5037747;28;45568;-74
2024/01/21 00:28:26;;;;;;;;;43.00;29.50;;;;;10.36;37.31;101937.34;5037057;28;45842;-73
2024/01/21 05:32:09;;;;;;;;;15.50;15.50;;;;;11.26;34.63;101856.06;5050937;27;45711;-74
2024/01/21 05:34:35;;;;;;;;;15.75;15.75;;;;;11.31;34.93;101843.34;5036991;28;45415;-74
2024/01/21 05:37:00;;;;;;;;;12.50;12.50;;;;;11.44;34.93;101829.56;5036811;28;46240;-74
2024/01/21 05:39:25;;;;;;;;;19.00;14.75;;;;;11.46;35.04;101796.38;5036774;28;57833;-74
2024/01/21 05:42:04;;;;;;;;;16.00;14.50;;;;;11.45;35.38;101794.59;5036110;28;45390;-73
2024/01/21 05:44:30;;;;;;;;;13.75;13.75;;;;;11.64;35.04;101828.00;5035809;28;45664;-74
2024/01/21 05:46:56;;;;;;;;;16.75;14.00;;;;;11.71;34.95;101847.47;5036216;28;45549;-74
2024/01/21 05:49:22;;;;;;;;;10.25;10.25;;;;;11.69;34.93;101844.81;5036386;28;45438;-73
2024/01/21 05:51:48;;;;;;;;;14.50;14.50;;;;;11.78;35.48;101851.72;5035598;28;45378;-73
2024/01/21 05:54:13;;;;;;;;;11.50;11.50;;;;;11.69;35.94;101857.38;5036080;28;45339;-74
2024/01/21 05:56:38;;;;;;;;;13.50;12.50;;;;;11.75;35.90;101843.75;5036021;28;45762;-74
2024/01/21 05:59:04;;;;;;;;;15.50;14.00;;;;;11.86;35.92;101864.91;5035315;28;45344;-73
2024/01/21 06:01:29;;;;;;;;;12.25;12.25;;;;;11.78;36.09;101877.72;5035095;28;45785;-74
2024/01/21 06:03:55;;;;;;;;;19.75;16.50;;;;;11.82;36.74;101876.72;5035437;28;58230;-73
2024/01/21 06:06:20;;;;;;;;;14.75;14.75;;;;;11.63;36.75;101850.41;5035833;28;45324;-74
2024/01/21 06:08:45;;;;;;;;;19.50;13.50;;;;;11.57;36.93;101839.84;5035658;28;46275;-75
2024/01/21 06:11:11;;;;;;;;;17.00;14.50;;;;;11.49;36.99;101843.69;5035246;28;56834;-74
2024/01/21 06:13:36;;;;;;;;;18.00;13.50;;;;;11.63;36.70;101855.78;5035669;28;45414;-73
2024/01/21 06:16:02;;;;;;;;;18.25;16.00;;;;;11.74;36.81;101853.63;5034907;28;54670;-75
2024/01/21 06:18:28;;;;;;;;;14.00;14.00;;;;;11.84;36.80;101850.63;5035933;28;45308;-74
2024/01/21 06:20:53;;;;;;;;;13.00;13.00;;;;;11.73;36.46;101843.81;5037066;28;45528;-74
2024/01/21 06:23:18;;;;;;;;;13.00;13.00;;;;;11.65;36.63;101845.84;5035885;28;49369;-75
2024/01/21 06:25:44;;;;;;;;;17.00;15.00;;;;;11.87;37.06;101872.94;5035138;28;59916;-74
2024/01/21 06:28:09;;;;;;;;;15.00;13.00;;;;;11.96;36.41;101874.44;5035463;28;45272;-73
2024/01/21 06:30:34;;;;;;;;;12.00;12.00;;;;;11.97;36.63;101862.75;5032914;28;45367;-74
2024/01/21 06:33:00;;;;;;;;;12.00;9.50;;;;;11.95;36.89;101860.13;5034806;28;50155;-72
2024/01/21 06:35:26;;;;;;;;;12.75;12.75;;;;;11.98;36.89;101860.03;5035362;28;45517;-75
2024/01/21 06:37:52;;;;;;;;;16.50;14.50;;;;;12.08;37.01;101866.81;5035670;28;45354;-74
2024/01/21 06:40:18;;;;;;;;;19.25;13.00;;;;;12.12;37.06;101854.16;5035030;28;45456;-75
2024/01/21 06:42:43;;;;;;;;;13.00;13.00;;;;;12.23;37.47;101860.06;5035697;28;45428;-73
2024/01/21 06:45:11;;;;;;;;;12.75;12.75;;;;;12.25;37.02;101860.00;5035142;28;45350;-74
2024/01/21 06:47:37;;;;;;;;;14.00;13.00;;;;;12.28;37.29;101871.50;5035513;28;45471;-74
2024/01/21 06:50:03;;;;;;;;;15.00;12.50;;;;;12.27;36.97;101885.00;5035492;28;45283;-73
2024/01/21 06:52:28;;;;;;;;;16.75;14.00;;;;;12.31;37.60;101900.13;5035474;28;45349;-74
2024/01/21 06:54:54;;;;;;;;;15.00;13.00;;;;;12.37;37.29;101902.56;5034889;28;46607;-75
2024/01/21 06:57:19;;;;;;;;;13.50;13.50;;;;;12.41;37.67;101889.00;5046534;28;45264;-75
2024/01/21 06:59:46;;;;;;;;;14.50;13.75;;;;;12.48;37.60;101886.94;5019660;28;45379;-74
2024/01/21 07:02:11;;;;;;;;;19.50;13.50;;;;;12.47;37.36;101891.44;5035247;28;45557;-73
2024/01/21 07:04:37;;;;;;;;;13.75;12.50;;;;;12.44;37.15;101905.00;5034872;28;45517;-74
2024/01/21 07:07:03;;;;;;;;;14.00;14.00;;;;;12.45;37.19;101893.31;5017104;28;45378;-74
2024/01/21 07:09:29;;;;;;;;;13.50;13.50;;;;;12.42;37.43;101882.66;5035275;28;45352;-72
2024/01/21 07:11:54;;;;;;;;;14.25;14.25;;;;;12.10;37.45;101893.66;5035275;28;45501;-72
2024/01/21 07:14:19;;;;;;;;;15.50;14.00;;;;;12.13;38.03;101912.38;5034591;28;45225;-75
2024/01/21 07:16:45;;;;;;;;;13.00;13.00;;;;;11.90;38.51;101926.59;5034842;28;45451;-73
2024/01/21 07:19:10;;;;;;;;;13.75;12.50;;;;;12.06;38.28;101926.94;5037545;28;45260;-74
2024/01/21 07:21:35;;;;;;;;;16.50;16.00;;;;;11.99;38.35;101923.56;5034635;28;54751;-75
2024/01/21 07:24:01;;;;;;;;;22.75;13.25;;;;;11.99;38.13;101912.81;5034804;28;45872;-75
2024/01/21 07:26:27;;;;;;;;;13.00;12.00;;;;;11.99;38.16;101910.13;5035166;28;45392;-74
2024/01/21 07:28:53;;;;;;;;;15.25;13.00;;;;;12.06;38.52;101921.56;5032719;28;45428;-74
2024/01/21 07:31:18;;;;;;;;;16.75;16.75;;;;;11.98;38.34;101931.69;5013062;28;46628;-74
2024/01/21 07:33:44;;;;;;;;;13.75;12.25;;;;;11.96;38.32;101912.94;5034592;28;45398;-76
2024/01/21 07:36:11;;;;;;;;;14.25;12.50;;;;;12.05;38.35;101931.44;5035010;28;45251;-76
2024/01/21 07:38:36;;;;;;;;;15.00;15.00;;;;;12.05;37.80;101909.06;5034832;28;45386;-76
2024/01/21 07:41:02;;;;;;;;;15.50;12.50;;;;;12.06;38.28;101905.44;5023334;28;45304;-76
2024/01/21 07:43:27;;;;;;;;;14.25;13.00;;;;;12.15;37.87;101933.84;5032326;28;46005;-75
2024/01/21 07:45:52;;;;;;;;;18.75;16.25;;;;;12.08;38.56;101943.88;5034666;28;45261;-76
2024/01/21 07:48:18;;;;;;;;;19.25;19.25;;;;;12.11;38.13;101952.75;5034302;28;45242;-72
2024/01/21 07:50:44;;;;;;;;;16.25;13.00;;;;;11.98;38.61;101956.78;5038476;28;45498;-75
2024/01/21 07:53:09;;;;;;;;;17.00;15.50;;;;;11.92;38.80;101962.31;5018747;28;46611;-76
2024/01/21 07:55:37;;;;;;;;;14.25;14.25;;;;;12.03;38.72;101976.31;4999811;28;45243;-74
2024/01/21 07:58:02;;;;;;;;;15.75;14.25;;;;;11.89;38.84;101975.00;5034769;28;45595;-79
2024/01/21 08:00:28;;;;;;;;;15.75;13.25;;;;;11.78;39.22;101964.56;5018503;28;46094;-83
2024/01/21 08:02:53;;;;;;;;;20.00;16.50;;;;;11.73;39.21;101945.91;5034322;28;45408;-77
2024/01/21 08:05:18;;;;;;;;;17.75;16.25;;;;;11.98;38.82;101985.47;5016703;28;45433;-75
2024/01/21 08:07:45;;;;;;;;;12.75;12.25;;;;;12.17;38.72;101980.34;5034084;28;45364;-77
2024/01/21 08:10:10;;;;;;;;;16.75;14.00;;;;;12.07;38.43;101971.72;5032536;28;45402;-74
2024/01/21 08:12:36;;;;;;;;;19.25;16.25;;;;;12.01;38.74;101963.84;5031844;28;45379;-78
2024/01/21 08:15:02;;;;;;;;;14.00;14.00;;;;;11.74;39.16;101981.66;5017951;28;45544;-76
2024/01/21 08:17:28;;;;;;;;;14.25;13.00;;;;;11.70;38.99;101945.09;5034768;28;45303;-78
2024/01/21 08:19:53;;;;;;;;;19.00;16.50;;;;;11.81;39.24;101960.91;5036319;28;45192;-77
2024/01/21 08:22:18;;;;;;;;;16.25;14.25;;;;;11.95;38.71;101969.41;5034333;28;59113;-78
2024/01/21 08:24:44;;;;;;;;;16.25;14.00;;;;;11.88;39.34;101963.38;5034832;28;45322;-79
2024/01/21 08:27:09;;;;;;;;;14.00;14.00;;;;;11.94;39.15;101981.97;5034650;28;45427;-78
2024/01/21 08:29:34;;;;;;;;;19.00;13.75;;;;;11.81;39.71;101969.00;5033937;28;52210;-76
2024/01/21 08:32:02;;;;;;;;;18.25;15.50;;;;;12.01;39.15;101998.78;5012383;28;47243;-78
2024/01/21 08:34:29;;;;;;;;;12.25;10.50;;;;;11.97;39.60;101989.94;5034188;28;45412;-78
2024/01/21 08:36:54;;;;;;;;;15.50;15.50;;;;;12.17;39.32;102028.72;5033762;28;45355;-73
2024/01/21 08:39:19;;;;;;;;;13.25;13.25;;;;;12.02;39.37;102024.72;5033789;28;46318;-75
2024/01/21 08:41:45;;;;;;;;;16.75;16.75;;;;;12.09;39.77;102037.91;5033234;28;47041;-75
2024/01/21 08:44:10;;;;;;;;;17.00;14.00;;;;;12.20;39.92;102056.41;5037241;28;45384;-76
2024/01/21 08:46:35;;;;;;;;;13.75;13.75;;;;;12.06;39.93;102037.16;5037361;28;49906;-75
2024/01/21 08:49:01;;;;;;;;;12.00;12.00;;;;;12.35;39.47;102063.97;5041407;28;45552;-76
2024/01/21 08:51:26;;;;;;;;;10.75;8.00;;;;;12.52;39.61;102066.13;5040004;28;46164;-71
2024/01/21 08:53:58;;;;;;;;;17.50;17.25;;;;;12.40;39.78;102074.59;5037168;28;45368;-70
2024/01/21 08:56:25;;;;;;;;;21.00;15.25;;;;;12.55;39.77;102070.53;5037650;28;45453;-78
2024/01/21 08:58:51;;;;;;;;;15.75;11.75;;;;;12.37;39.88;102051.38;5037237;28;45540;-75
2024/01/21 09:01:16;;;;;;;;;19.50;17.25;;;;;12.47;40.22;102046.56;5036447;28;46139;-76
2024/01/21 09:03:42;;;;;;;;;14.75;13.50;;;;;12.16;40.52;102044.00;5045434;28;45272;-76
2024/01/21 09:06:07;;;;;;;;;13.00;13.00;;;;;12.36;40.50;102051.41;5040230;28;45371;-75
2024/01/21 09:08:32;;;;;;;;;20.25;14.00;;;;;12.41;39.94;102052.16;5042105;28;45717;-75
2024/01/21 09:10:58;;;;;;;;;12.75;12.75;;;;;12.52;40.39;102049.97;5036886;28;46113;-74
2024/01/21 09:13:23;;;;;;;;;13.00;13.00;;;;;12.39;40.29;102046.84;5036397;28;45502;-73
2024/01/21 09:15:49;;;;;;;;;15.50;14.00;;;;;12.52;40.52;102056.25;5035890;28;45255;-77
2024/01/21 09:18:14;;;;;;;;;9.75;7.75;;;;;12.51;40.03;102048.22;5037159;28;46643;-75
2024/01/21 09:20:39;;;;;;;;;17.50;15.00;;;;;12.57;40.55;102066.88;5052228;28;50731;-75
2024/01/21 09:23:05;;;;;;;;;16.00;13.50;;;;;12.70;40.04;102057.44;5044568;28;45336;-72
2024/01/21 09:25:30;;;;;;;;;13.50;13.50;;;;;12.91;39.79;102060.34;5036892;28;45458;-72
2024/01/21 09:27:55;;;;;;;;;18.75;15.50;;;;;13.04;39.36;102072.44;5036508;28;45571;-70
2024/01/21 09:30:21;;;;;;;;;14.75;13.00;;;;;12.94;39.81;102071.88;5033368;28;46308;-73
2024/01/21 09:32:46;;;;;;;;;19.25;16.00;;;;;12.81;40.11;102068.72;5032855;28;45398;-73
2024/01/21 09:35:11;;;;;;;;;13.50;12.00;;;;;12.80;40.44;102055.31;5039826;28;45344;-73
2024/01/21 09:37:36;;;;;;;;;13.25;13.25;;;;;12.90;39.98;102054.06;5048662;28;45574;-74
2024/01/21 09:40:03;;;;;;;;;15.00;11.00;;;;;12.83;40.01;102022.94;5039879;28;45390;-73
2024/01/21 09:42:28;;;;;;;;;14.25;13.25;;;;;13.00;39.94;102035.78;5036620;28;45331;-72
2024/01/21 09:44:54;;;;;;;;;15.75;15.25;;;;;12.94;40.03;102050.31;5038330;28;45394;-73
2024/01/21 09:47:20;;;;;;;;;16.50;14.25;;;;;12.87;40.68;102049.66;5033481;28;45366;-73
2024/01/21 09:49:47;;;;;;;;;13.50;13.50;;;;;13.22;39.93;102050.28;5042161;28;45906;-72
2024/01/21 09:52:12;;;;;;;;;17.25;12.75;;;;;13.29;39.80;102056.31;5025929;28;45250;-72
2024/01/21 09:54:38;;;;;;;;;17.50;13.75;;;;;13.39;39.93;102053.22;5045189;28;45167;-74
2024/01/21 09:57:06;;;;;;;;;18.50;15.50;;;;;13.34;39.63;102057.03;5028891;28;46270;-73
2024/01/21 09:59:31;;;;;;;;;14.75;14.25;;;;;13.29;39.95;102059.88;5026858;28;46130;-74
2024/01/21 10:01:57;;;;;;;;;14.00;14.00;;;;;13.45;39.81;102063.78;5029947;28;45674;-74
2024/01/21 10:04:22;;;;;;;;;12.00;11.75;;;;;13.47;39.43;102061.03;5035908;28;45377;-75
2024/01/21 10:06:51;;;;;;;;;13.50;13.50;;;;;13.47;39.56;102059.22;5036189;28;45244;-75
2024/01/21 10:09:21;;;;;;;;;11.75;11.75;;;;;13.51;40.12;102071.66;5035743;28;45957;-73
2024/01/21 10:11:54;;;;;;;;;11.00;11.00;;;;;13.59;39.83;102088.41;5036146;28;45470;-73
2024/01/21 10:14:20;;;;;;;;;14.25;12.25;;;;;13.69;39.84;102069.22;5035690;28;45346;-75
2024/01/21 10:16:46;;;;;;;;;12.00;12.00;;;;;13.87;39.45;102073.88;5035859;28;45365;-74
2024/01/21 10:19:14;;;;;;;;;14.25;13.00;;;;;13.76;40.08;102084.22;5037162;28;46333;-74
2024/01/21 10:21:39;;;;;;;;;10.25;10.25;;;;;13.96;39.60;102077.09;5035862;28;45370;-75
2024/01/21 10:24:07;;;;;;;;;11.75;10.00;;;;;14.11;39.65;102072.94;5035777;28;45477;-76
2024/01/21 10:26:36;;;;;;;;;10.50;10.25;;;;;13.98;39.84;102071.66;5043614;28;45516;-72
2024/01/21 10:29:02;;;;;;;;;14.75;13.50;;;;;14.11;39.94;102059.47;5046862;28;45520;-73
2024/01/21 10:31:28;;;;;;;;;13.25;10.25;;;;;14.30;39.81;102059.59;5021206;28;45415;-75
2024/01/21 10:33:53;;;;;;;;;15.00;13.75;;;;;14.33;39.67;102054.94;5017996;28;45341;-73
2024/01/21 10:36:19;;;;;;;;;10.50;10.50;;;;;14.28;39.61;102046.19;5035030;28;60305;-73
2024/01/21 10:38:49;;;;;;;;;18.25;12.75;;;;;14.49;39.53;102046.25;5035598;28;46071;-73
2024/01/21 10:41:28;;;;;;;;;12.50;11.00;;;;;14.65;39.29;102032.06;5034745;28;45362;-72
2024/01/21 10:43:56;;;;;;;;;14.00;10.00;;;;;14.75;40.10;102028.03;5018479;28;45377;-72
2024/01/21 10:46:25;;;;;;;;;11.50;10.25;;;;;14.85;39.92;102019.53;5017885;28;45520;-73
2024/01/21 10:48:55;;;;;;;;;12.00;11.25;;;;;14.91;39.98;102012.03;5035527;28;45315;-74
2024/01/21 10:51:22;;;;;;;;;11.00;11.00;;;;;15.09;39.51;102019.34;5017784;28;45500;-73
2024/01/21 10:53:49;;;;;;;;;12.25;10.50;;;;;14.96;40.20;102012.72;5017617;28;45586;-73
2024/01/21 10:56:15;;;;;;;;;12.00;12.00;;;;;14.98;40.21;102000.00;5034846;28;45270;-80
2024/01/21 10:58:40;;;;;;;;;13.00;10.00;;;;;15.20;40.03;101993.66;5017256;28;46054;-75
2024/01/21 11:01:07;;;;;;;;;12.00;8.00;;;;;14.84;41.53;101979.97;5035624;28;52836;-76
2024/01/21 11:03:33;;;;;;;;;9.75;9.75;;;;;15.10;40.76;101985.09;5040220;28;45458;-75
2024/01/21 11:06:01;;;;;;;;;10.00;10.00;;;;;15.25;40.95;101999.72;5016692;28;46846;-73
2024/01/21 11:08:27;;;;;;;;;12.25;12.25;;;;;15.38;40.69;101996.41;5039960;28;45470;-71
2024/01/21 11:11:14;;;;;;;;;11.50;9.00;;;;;15.29;41.09;101993.25;5038365;28;45248;-76
2024/01/21 11:13:52;;;;;;;;;11.50;11.50;;;;;15.38;41.15;102009.06;5034037;28;45514;-76
2024/01/21 11:16:30;;;;;;;;;14.00;11.75;;;;;15.30;41.54;102012.09;5026878;28;45405;-75
2024/01/21 11:19:05;;;;;;;;;15.00;11.50;;;;;14.94;42.25;101998.41;5014929;28;47665;-80
2024/01/21 11:21:32;;;;;;;;;16.50;13.75;;;;;15.17;42.33;102013.59;5035525;28;45557;-78
2024/01/21 11:24:04;;;;;;;;;11.75;11.75;;;;;15.26;41.86;102012.28;5034900;28;45361;-75
2024/01/21 11:26:31;;;;;;;;;13.00;12.00;;;;;15.21;42.46;102012.53;5034975;28;45419;-76
2024/01/21 11:28:58;;;;;;;;;11.25;11.00;;;;;15.18;42.35;102019.88;5034345;28;45580;-76
2024/01/21 11:31:25;;;;;;;;;12.75;11.75;;;;;14.92;42.96;102003.00;5031875;28;45277;-82
2024/01/21 11:34:10;;;;;;;;;13.00;13.00;;;;;14.87;43.45;102006.84;5017492;28;45413;-80
2024/01/21 11:36:42;;;;;;;;;12.00;11.75;;;;;14.75;43.70;102000.16;5041333;28;45403;-79
2024/01/21 11:39:07;;;;;;;;;15.00;13.00;;;;;14.32;44.64;102022.63;5032301;28;47183;-73
2024/01/21 11:41:43;;;;;;;;;14.75;13.00;;;;;14.55;44.52;102006.38;5034715;28;45442;-77
2024/01/21 11:44:24;;;;;;;;;12.00;11.00;;;;;14.56;44.13;101974.88;5034894;28;45487;-78
2024/01/21 11:46:52;;;;;;;;;12.75;12.00;;;;;14.76;43.68;101983.91;5034912;28;45268;-81
2024/01/21 11:49:19;;;;;;;;;14.25;12.25;;;;;14.85;43.72;101968.25;5029975;28;46250;-78
2024/01/21 11:51:44;;;;;;;;;14.75;11.00;;;;;14.63;44.29;101990.75;5036673;28;45284;-79
2024/01/21 11:54:10;;;;;;;;;10.50;7.00;;;;;14.55;44.28;101997.41;5038008;28;45328;-80
2024/01/21 11:56:36;;;;;;;;;16.00;13.00;;;;;14.54;44.24;102004.66;5035088;28;45356;-77
2024/01/21 11:59:06;;;;;;;;;10.25;8.75;;;;;14.66;44.45;102008.66;5037010;28;46073;-83
2024/01/21 12:01:33;;;;;;;;;11.75;11.25;;;;;14.71;44.40;101999.44;5035428;28;45457;-79
2024/01/21 12:04:00;;;;;;;;;19.75;12.25;;;;;14.89;44.11;102023.84;5027361;28;45467;-81
2024/01/21 12:06:26;;;;;;;;;14.00;12.00;;;;;14.81;44.26;102010.69;5040670;28;45339;-80
2024/01/21 12:08:55;;;;;;;;;11.25;11.25;;;;;14.44;44.61;102015.91;5047298;28;45359;-80
2024/01/21 12:11:20;;;;;;;;;9.50;7.00;;;;;14.55;45.24;102019.88;5035669;28;45545;-82
2024/01/21 12:13:45;;;;;;;;;16.00;12.75;;;;;14.32;45.59;102012.72;5035793;28;45522;-82
2024/01/21 12:16:12;;;;;;;;;14.50;12.00;;;;;14.50;45.11;101978.75;5045823;28;45457;-82
2024/01/21 12:18:42;;;;;;;;;15.25;11.25;;;;;14.81;45.13;102026.00;5046004;28;46342;-76
2024/01/21 12:21:11;;;;;;;;;16.50;15.50;;;;;14.54;45.71;101999.25;5046235;28;45388;-77
2024/01/21 12:23:42;;;;;;;;;16.50;15.25;;;;;14.84;45.29;102047.47;5045471;28;45353;-79
2024/01/21 12:26:08;;;;;;;;;15.50;15.50;;;;;14.63;46.08;102043.88;5042192;28;45486;-83
2024/01/21 12:28:34;;;;;;;;;11.00;11.00;;;;;14.41;45.95;102022.28;5042538;28;45405;-83
2024/01/21 12:31:00;;;;;;;;;15.00;15.00;;;;;14.82;45.50;102062.84;5043451;28;45486;-81
2024/01/21 12:33:26;;;;;;;;;13.50;13.50;;;;;14.55;46.31;102054.09;5028208;28;45698;-81
2024/01/21 12:35:52;;;;;;;;;13.00;10.00;;;;;14.68;45.72;102039.16;5046409;28;46604;-81
2024/01/21 12:38:18;;;;;;;;;12.50;12.50;;;;;14.84;45.53;102031.28;5041509;28;45613;-82
2024/01/21 12:40:44;;;;;;;;;10.75;10.75;;;;;14.73;45.35;102012.81;5045714;28;45575;-82
2024/01/21 12:43:10;;;;;;;;;19.75;13.75;;;;;14.58;46.17;102002.69;5052911;28;45152;-82
2024/01/21 12:45:35;;;;;;;;;18.50;13.25;;;;;14.62;46.46;102036.72;5034357;28;45383;-81
2024/01/21 12:48:02;;;;;;;;;15.00;14.50;;;;;14.74;45.53;102030.78;5038711;28;46000;-80
2024/01/21 12:50:27;;;;;;;;;16.50;14.25;;;;;14.77;45.94;102047.75;5049333;28;45459;-78
2024/01/21 12:52:55;;;;;;;;;16.25;14.75;;;;;14.53;46.41;102035.28;5043090;28;45524;-84
2024/01/21 12:55:21;;;;;;;;;16.25;12.25;;;;;14.59;46.25;102042.25;5048405;28;45628;-81
2024/01/21 12:57:48;;;;;;;;;10.75;10.75;;;;;14.61;46.84;102048.47;5046268;28;46198;-80
2024/01/21 13:00:14;;;;;;;;;18.50;16.00;;;;;14.26;46.78;101980.63;5039934;28;45362;-78
2024/01/21 13:02:40;;;;;;;;;15.50;13.25;;;;;14.74;46.27;102030.78;5020762;28;45256;-78
2024/01/21 13:05:07;;;;;;;;;18.50;15.25;;;;;14.79;46.15;102031.50;5019590;28;46731;-78
2024/01/21 13:07:36;;;;;;;;;15.75;15.75;;;;;14.89;46.34;102038.22;5036805;28;45407;-78
2024/01/21 13:10:03;;;;;;;;;17.50;14.75;;;;;14.97;45.76;102014.47;5037379;28;45390;-78
2024/01/21 13:12:28;;;;;;;;;21.50;15.00;;;;;14.97;46.26;102008.22;5037371;28;45569;-79
2024/01/21 13:14:54;;;;;;;;;16.00;14.75;;;;;14.72;47.16;102033.53;5019747;28;45365;-77
2024/01/21 13:17:21;;;;;;;;;11.00;10.75;;;;;14.84;47.01;102018.66;5036660;28;45380;-74
2024/01/21 13:19:46;;;;;;;;;12.75;11.50;;;;;14.54;47.34;101977.69;5039554;28;45551;-77
2024/01/21 13:22:11;;;;;;;;;12.75;12.25;;;;;14.82;47.24;102022.34;5036455;28;48572;-78
2024/01/21 13:24:37;;;;;;;;;15.75;14.00;;;;;14.65;48.13;102020.38;5036658;28;53029;-76
2024/01/21 13:27:09;;;;;;;;;14.50;14.50;;;;;14.79;47.05;101984.72;5036552;28;45665;-77
2024/01/21 13:32:20;;;;;;;;;5.25;2.75;;;;;15.03;47.43;102013.34;5036623;28;45391;-79
2024/01/21 13:34:45;;;;;;;;;21.75;15.25;;;;;14.85;47.46;101989.84;5020001;28;46439;-78
2024/01/21 13:37:12;;;;;;;;;16.00;13.25;;;;;15.19;46.88;102008.13;5033323;28;45409;-79
2024/01/21 13:39:39;;;;;;;;;13.50;12.25;;;;;15.28;46.85;102008.59;5035621;28;45398;-77
2024/01/21 13:42:06;;;;;;;;;11.50;10.25;;;;;15.19;47.15;102025.22;5037192;28;45467;-79
2024/01/21 13:44:31;;;;;;;;;14.00;13.75;;;;;14.86;48.13;102018.59;5027941;28;45635;-79
2024/01/21 13:46:57;;;;;;;;;18.25;12.50;;;;;14.98;47.49;101993.72;5002395;28;47030;-76
2024/01/21 13:49:23;;;;;;;;;19.50;17.25;;;;;14.84;47.86;101983.56;5023127;28;45243;-78
2024/01/21 13:51:49;;;;;;;;;15.50;13.00;;;;;15.06;47.77;102005.97;5037321;28;45297;-77
2024/01/21 13:54:14;;;;;;;;;11.25;9.75;;;;;14.93;48.12;101993.94;5038167;28;45186;-76
2024/01/21 13:56:40;;;;;;;;;16.75;15.50;;;;;15.07;47.30;101966.31;5039797;28;46354;-75
2024/01/21 13:59:05;;;;;;;;;17.75;16.00;;;;;15.28;46.96;101972.59;5039003;28;45465;-78
2024/01/21 14:01:31;;;;;;;;;19.00;19.00;;;;;14.98;47.51;101961.34;5037278;28;45580;-77
2024/01/21 14:03:56;;;;;;;;;14.00;14.00;;;;;15.23;47.78;101994.38;5036175;28;45410;-77
2024/01/21 14:06:22;;;;;;;;;20.50;16.75;;;;;15.29;47.23;101968.94;5035785;28;46122;-76
2024/01/21 14:08:47;;;;;;;;;18.75;15.75;;;;;15.42;47.14;101972.81;5035469;28;45454;-78
2024/01/21 14:11:13;;;;;;;;;21.25;21.00;;;;;15.47;47.32;101977.06;5011602;28;50173;-77
2024/01/21 14:13:39;;;;;;;;;20.25;18.75;;;;;15.33;47.62;101973.22;5028708;28;45315;-78
2024/01/21 14:16:05;;;;;;;;;15.50;12.50;;;;;15.37;47.51;101975.75;5035406;28;47409;-79
2024/01/21 14:18:30;;;;;;;;;18.00;17.75;;;;;15.12;48.32;101965.19;5036935;28;45486;-77
2024/01/21 14:20:56;;;;;;;;;15.25;15.00;;;;;15.09;48.44;101967.13;5036165;28;46979;-76
2024/01/21 14:23:21;;;;;;;;;17.25;17.00;;;;;15.20;47.97;101964.84;5035769;28;45599;-80
2024/01/21 14:25:47;;;;;;;;;19.00;16.25;;;;;15.34;47.92;101948.84;5035948;28;45953;-81
2024/01/21 14:28:15;;;;;;;;;20.75;14.50;;;;;14.94;49.26;101965.13;5036352;28;45307;-82
2024/01/21 14:30:40;;;;;;;;;15.25;12.00;;;;;14.55;50.09;101941.63;5046785;28;45412;-79
2024/01/21 14:33:05;;;;;;;;;20.25;17.50;;;;;14.69;49.99;101965.34;5034651;28;45403;-77
2024/01/21 14:35:32;;;;;;;;;16.75;16.75;;;;;14.80;50.01;101957.63;5032944;28;50147;-75
2024/01/21 14:37:58;;;;;;;;;20.25;18.50;;;;;14.68;50.25;101944.69;5019632;28;45404;-80
2024/01/21 14:40:25;;;;;;;;;21.00;18.00;;;;;14.87;50.22;101936.66;5034683;28;45473;-78
2024/01/21 14:42:51;;;;;;;;;17.75;17.75;;;;;14.93;49.58;101896.75;5035273;28;45478;-74
2024/01/21 14:45:19;;;;;;;;;20.00;16.00;;;;;14.91;50.03;101897.75;5035243;28;46281;-75
2024/01/21 14:47:45;;;;;;;;;20.75;17.25;;;;;15.14;49.76;101932.72;5035270;28;45393;-75
2024/01/21 14:50:10;;;;;;;;;22.50;16.00;;;;;15.04;49.69;101936.78;5035444;28;45450;-77
2024/01/21 14:52:35;;;;;;;;;25.00;21.25;;;;;15.07;49.96;101921.28;5035707;28;45469;-78
2024/01/21 14:55:01;;;;;;;;;16.25;10.25;;;;;15.03;50.00;101924.22;5035147;28;46116;-73
2024/01/21 14:57:27;;;;;;;;;22.00;18.00;;;;;15.08;49.57;101896.03;5035190;28;45304;-75
2024/01/21 14:59:53;;;;;;;;;17.50;16.00;;;;;15.16;50.12;101922.69;5035199;28;45212;-78
2024/01/21 15:02:18;;;;;;;;;19.75;15.75;;;;;15.39;49.58;101913.53;5032714;28;45294;-75
2024/01/21 15:04:44;;;;;;;;;15.00;13.25;;;;;15.52;49.41;101909.28;5028818;28;45510;-76
2024/01/21 15:07:09;;;;;;;;;18.50;16.50;;;;;15.59;48.97;101897.25;5035265;28;45405;-74
2024/01/21 15:09:34;;;;;;;;;19.25;18.00;;;;;15.82;48.58;101907.81;5026948;28;45468;-75
2024/01/21 15:12:00;;;;;;;;;14.00;14.00;;;;;15.74;48.44;101873.97;5035432;28;46560;-75
2024/01/21 15:14:30;;;;;;;;;20.50;17.00;;;;;16.01;48.39;101910.47;5034121;28;46325;-74
2024/01/21 15:16:56;;;;;;;;;16.25;16.25;;;;;15.91;48.59;101897.53;5034839;28;45306;-75
2024/01/21 15:19:21;;;;;;;;;12.50;11.50;;;;;15.86;49.08;101909.44;5037638;28;45385;-73
2024/01/21 15:21:47;;;;;;;;;15.75;11.00;;;;;15.92;48.84;101899.25;5034754;28;45480;-73
2024/01/21 15:24:12;;;;;;;;;20.00;16.50;;;;;15.95;48.67;101907.22;5034713;28;45252;-75
2024/01/21 15:26:38;;;;;;;;;14.25;12.75;;;;;15.94;49.36;101890.09;5035211;28;45618;-77
2024/01/21 15:29:03;;;;;;;;;14.25;13.50;;;;;16.03;48.57;101897.75;5034856;28;45373;-72
2024/01/21 15:31:30;;;;;;;;;15.00;13.00;;;;;15.90;49.05;101864.19;5031969;28;45396;-70
2024/01/21 15:33:56;;;;;;;;;11.00;9.50;;;;;16.12;48.76;101891.88;5034641;28;46162;-73
2024/01/21 15:36:21;;;;;;;;;15.25;15.00;;;;;16.14;48.79;101884.59;5034865;28;45457;-73
2024/01/21 15:38:47;;;;;;;;;23.00;19.00;;;;;16.16;48.87;101885.34;5034332;28;45871;-72
2024/01/21 15:41:12;;;;;;;;;17.00;15.00;;;;;15.98;49.46;101855.69;5033577;28;45476;-77
2024/01/21 15:43:38;;;;;;;;;14.75;14.25;;;;;15.93;49.79;101839.66;5034229;28;45374;-73
2024/01/21 15:46:03;;;;;;;;;14.00;12.75;;;;;16.04;49.58;101850.84;5034855;28;45397;-73
2024/01/21 15:48:29;;;;;;;;;12.75;11.25;;;;;16.13;49.85;101877.41;5038156;28;45536;-72
2024/01/21 15:50:55;;;;;;;;;18.00;14.50;;;;;16.01;49.85;101861.78;5042896;28;45414;-74
2024/01/21 15:53:21;;;;;;;;;14.25;14.25;;;;;16.07;49.93;101869.63;5043816;28;45955;-77
2024/01/21 15:55:46;;;;;;;;;17.75;13.75;;;;;16.08;50.39;101873.16;5040932;28;45764;-79
2024/01/21 15:58:12;;;;;;;;;15.75;13.75;;;;;15.91;50.59;101874.03;5034086;28;45426;-74
2024/01/21 16:00:37;;;;;;;;;15.25;12.50;;;;;15.96;51.16;101881.94;5044977;28;45410;-76
2024/01/21 16:03:03;;;;;;;;;15.50;15.50;;;;;15.85;51.21;101855.41;5035399;28;45381;-73
2024/01/21 16:05:28;;;;;;;;;11.00;11.00;;;;;15.88;51.51;101857.97;5034573;28;45484;-75
2024/01/21 16:07:54;;;;;;;;;15.75;12.00;;;;;15.97;51.56;101879.16;5034265;28;45362;-74
2024/01/21 16:10:19;;;;;;;;;8.50;8.00;;;;;15.72;52.39;101884.91;5033868;28;45984;-77